Mid Ohio Valley Regional Airport
KPKB : rendu visible

Aérodrome :











RETROUVEZ-NOUS SUR...

 
LOGIN :

S'inscrire | Disclaimer

   EN    FR    IT 

 









Légende :    VFR   VFR Marginal   IFR   IFR Intensif   IFR Très Intensif
Visi : 
Plafond : 
>= 8 km
>= 3000ft
5 à 8 km
1000 à 3000 ft
1500m à 5 km
500 à 1000 ft
800 à 1500m
200 à 500 ft
< 800m
< 200 ft
Symboles :   Orages  Brouillard  Fortes neiges  Fortes précipitations  Vent > 20 kt






- Altitude de l'aérodrome : 858 ft
- Code IATA : PKB


KPKB - Mid Ohio Valley Regional

DERNIER METAR :
  • 100805Z AUTO 29012G15KT 3SM -RA BR FEW007 BKN020 OVC060 13/12 A2979 RMK AO2 PRESRR P0003 T01330122

METARs EXPIRÉS :
  • 100753Z AUTO 24008KT 8SM -RA FEW019 BKN048 OVC060 14/12 A2977 RMK AO2 SLP078 P0005 T01390122
  • 100653Z AUTO 22009G16KT 10SM -RA BKN045 OVC055 15/12 A2974 RMK AO2 RAB0558E25B51 SLP070 P0000 T01500117
  • 100615Z AUTO 23011G18KT 10SM -RA FEW020 BKN041 OVC055 14/12 A2974 RMK AO2 RAB0558 P0000 T01440122
  • 100601Z AUTO 24006KT 10SM -RA FEW021 BKN027 OVC046 14/12 A2974 RMK AO2 RAB0558 P0000 T01440122
  • 100553Z AUTO 23007KT 10SM SCT021 BKN038 OVC045 14/12 A2974 RMK AO2 RAB20E48 SLP067 P0002 60002 T01440122 10161 20144 51009
  • 100539Z AUTO 24008G21KT 8SM -RA SCT021 BKN027 OVC048 14/12 A2973 RMK AO2 RAB20 P0002 T01440122

TAF KPKB
Valide du 10 à 06h jusqu'au 11 à 06h UTC


100529Z 1006/1106 22010G17KT P6SM SCT022 BKN040 OVC090
FM100800 26010G17KT 6SM -SHRA OVC015
FM100900 27009G16KT 6SM -RA OVC018
FM101400 28009G16KT P6SM OVC013
FM101600 28007KT P6SM OVC022
FM101900 27007KT P6SM OVC070



MET'MAP, la Météo Aéronautique d'un coup d'oeil ! - Copyright ORBIFLY Décembre 2007 - Disclaimer

ORBIFLY MET'MAP TEAM :

Programmation & Développement : Alexandra Zaïnal
Sur une idée originale de : Baudouin d'Aumeries
Assistance à la programmation : Marc-Olivier Méhu
Soutien technique & logistique : Manuel Goepfert

Contact : metmap@orbifly.com




SOURCES & CREDITS :

   NOAA       Earth
Advisory